BEZ313 TTCP-TJSJ
Flight info
| Callsign | BEZ313 |
|---|---|
| Flight time | N/A |
| Altitude | 12000 |
| Route | GND ANADA L467 GESSO RTE7 SJU |
| Aircraft | C208/L-VGD/C |
Departure
| Time | N/A |
|---|---|
| Airport | A.N.R. Robinson International Airport (TTCP) |
Arrival
| Time | 2026-04-27 00:29 |
|---|---|
| Airport | Luis Munoz Marin International Airport (TJSJ) |
| Time | Latitude | Longitude | Altitude | Speed | Heading |
|---|---|---|---|---|---|
| 2026-04-26 23:54 | 16.91722 | -65.39652 | 12043 ft | 176 kts | 326° |
| 2026-04-26 23:55 | 16.92757 | -65.40334 | 12043 ft | 176 kts | 326° |
| 2026-04-26 23:55 | 16.93795 | -65.41019 | 12043 ft | 176 kts | 326° |
| 2026-04-26 23:55 | 16.94831 | -65.41700 | 12042 ft | 176 kts | 325° |
| 2026-04-26 23:55 | 16.95871 | -65.42387 | 12041 ft | 176 kts | 325° |
| 2026-04-26 23:56 | 16.96924 | -65.43082 | 12041 ft | 176 kts | 325° |
| 2026-04-26 23:56 | 16.97955 | -65.43765 | 12041 ft | 176 kts | 325° |
| 2026-04-26 23:56 | 16.98994 | -65.44454 | 12040 ft | 176 kts | 325° |
| 2026-04-26 23:56 | 17.00033 | -65.45140 | 12041 ft | 176 kts | 326° |
| 2026-04-26 23:57 | 17.01076 | -65.45828 | 12041 ft | 176 kts | 326° |
| 2026-04-26 23:57 | 17.02119 | -65.46518 | 12041 ft | 176 kts | 326° |
| 2026-04-26 23:57 | 17.03159 | -65.47204 | 12043 ft | 176 kts | 326° |
| 2026-04-26 23:57 | 17.04187 | -65.47884 | 12044 ft | 176 kts | 326° |
| 2026-04-26 23:58 | 17.05229 | -65.48572 | 12043 ft | 176 kts | 326° |
| 2026-04-26 23:58 | 17.06270 | -65.49258 | 12043 ft | 176 kts | 326° |
| 2026-04-26 23:58 | 17.07306 | -65.49944 | 12041 ft | 176 kts | 326° |
| 2026-04-26 23:58 | 17.08331 | -65.50621 | 12041 ft | 176 kts | 325° |
| 2026-04-26 23:59 | 17.09370 | -65.51309 | 12042 ft | 176 kts | 325° |
| 2026-04-26 23:59 | 17.10408 | -65.51994 | 12042 ft | 176 kts | 325° |
| 2026-04-26 23:59 | 17.11443 | -65.52679 | 12042 ft | 176 kts | 324° |
| 2026-04-26 23:59 | 17.12485 | -65.53368 | 12041 ft | 176 kts | 325° |
| 2026-04-27 00:00 | 17.13516 | -65.54054 | 12041 ft | 176 kts | 325° |
| 2026-04-27 00:00 | 17.14549 | -65.54736 | 12039 ft | 176 kts | 325° |
| 2026-04-27 00:00 | 17.15598 | -65.55429 | 12039 ft | 176 kts | 325° |
| 2026-04-27 00:00 | 17.16635 | -65.56118 | 12039 ft | 176 kts | 325° |
| 2026-04-27 00:01 | 17.17664 | -65.56798 | 12041 ft | 176 kts | 325° |
| 2026-04-27 00:01 | 17.18709 | -65.57489 | 12046 ft | 175 kts | 324° |
| 2026-04-27 00:01 | 17.19731 | -65.58167 | 12052 ft | 175 kts | 325° |
| 2026-04-27 00:01 | 17.20771 | -65.58855 | 12056 ft | 175 kts | 325° |
| 2026-04-27 00:02 | 17.21795 | -65.59536 | 12061 ft | 175 kts | 325° |
| 2026-04-27 00:02 | 17.22824 | -65.60215 | 12060 ft | 175 kts | 325° |
| 2026-04-27 00:02 | 17.23859 | -65.60901 | 12058 ft | 175 kts | 325° |
| 2026-04-27 00:02 | 17.24894 | -65.61587 | 12055 ft | 176 kts | 324° |
| 2026-04-27 00:03 | 17.25934 | -65.62273 | 12053 ft | 176 kts | 324° |
| 2026-04-27 00:03 | 17.26972 | -65.62964 | 12055 ft | 176 kts | 324° |
| 2026-04-27 00:03 | 17.28012 | -65.63652 | 12058 ft | 176 kts | 323° |
| 2026-04-27 00:03 | 17.29042 | -65.64336 | 12060 ft | 176 kts | 324° |
| 2026-04-27 00:04 | 17.30072 | -65.65020 | 12061 ft | 175 kts | 324° |
| 2026-04-27 00:04 | 17.31108 | -65.65707 | 12064 ft | 175 kts | 324° |
| 2026-04-27 00:04 | 17.32153 | -65.66398 | 12064 ft | 176 kts | 324° |
| 2026-04-27 00:04 | 17.33184 | -65.67082 | 12063 ft | 176 kts | 323° |
| 2026-04-27 00:05 | 17.34219 | -65.67770 | 12063 ft | 176 kts | 324° |
| 2026-04-27 00:05 | 17.35249 | -65.68454 | 12062 ft | 176 kts | 323° |
| 2026-04-27 00:05 | 17.36295 | -65.69148 | 12061 ft | 176 kts | 324° |
| 2026-04-27 00:05 | 17.37333 | -65.69840 | 12062 ft | 176 kts | 323° |
| 2026-04-27 00:06 | 17.38368 | -65.70523 | 12062 ft | 176 kts | 324° |
| 2026-04-27 00:06 | 17.39397 | -65.71209 | 12062 ft | 176 kts | 323° |
| 2026-04-27 00:06 | 17.40439 | -65.71898 | 12065 ft | 176 kts | 323° |
| 2026-04-27 00:06 | 17.41471 | -65.72582 | 12064 ft | 175 kts | 324° |
| 2026-04-27 00:07 | 17.42502 | -65.73270 | 12064 ft | 175 kts | 323° |
| 2026-04-27 00:07 | 17.43536 | -65.73958 | 12061 ft | 176 kts | 323° |
| 2026-04-27 00:07 | 17.44580 | -65.74651 | 12055 ft | 176 kts | 324° |
| 2026-04-27 00:07 | 17.45610 | -65.75336 | 12049 ft | 176 kts | 324° |
| 2026-04-27 00:08 | 17.46647 | -65.76023 | 11985 ft | 179 kts | 324° |
| 2026-04-27 00:08 | 17.47724 | -65.76742 | 11868 ft | 183 kts | 324° |
| 2026-04-27 00:08 | 17.48812 | -65.77464 | 11754 ft | 186 kts | 325° |
| 2026-04-27 00:08 | 17.50015 | -65.77988 | 11637 ft | 191 kts | 345° |
| 2026-04-27 00:09 | 17.51322 | -65.78298 | 11521 ft | 191 kts | 345° |
| 2026-04-27 00:09 | 17.52620 | -65.78574 | 11383 ft | 191 kts | 346° |
| 2026-04-27 00:09 | 17.53928 | -65.78857 | 11241 ft | 191 kts | 346° |
| 2026-04-27 00:09 | 17.55235 | -65.79143 | 11096 ft | 191 kts | 346° |
| 2026-04-27 00:10 | 17.56536 | -65.79429 | 10957 ft | 190 kts | 346° |
| 2026-04-27 00:10 | 17.57842 | -65.79713 | 10817 ft | 190 kts | 346° |
| 2026-04-27 00:10 | 17.59141 | -65.79995 | 10673 ft | 190 kts | 346° |
| 2026-04-27 00:10 | 17.60440 | -65.80283 | 10527 ft | 190 kts | 346° |
| 2026-04-27 00:11 | 17.61737 | -65.80572 | 10380 ft | 189 kts | 347° |
| 2026-04-27 00:11 | 17.63021 | -65.80855 | 10238 ft | 189 kts | 347° |
| 2026-04-27 00:11 | 17.64327 | -65.81142 | 10093 ft | 189 kts | 346° |
| 2026-04-27 00:11 | 17.65622 | -65.81426 | 9947 ft | 189 kts | 346° |
| 2026-04-27 00:12 | 17.66918 | -65.81714 | 9802 ft | 189 kts | 346° |
| 2026-04-27 00:12 | 17.68210 | -65.81998 | 9657 ft | 190 kts | 346° |
| 2026-04-27 00:12 | 17.69504 | -65.82285 | 9514 ft | 190 kts | 347° |
| 2026-04-27 00:12 | 17.70805 | -65.82573 | 9372 ft | 190 kts | 346° |
| 2026-04-27 00:13 | 17.72103 | -65.82859 | 9229 ft | 190 kts | 346° |
| 2026-04-27 00:13 | 17.73394 | -65.83143 | 9089 ft | 190 kts | 347° |
| 2026-04-27 00:13 | 17.74682 | -65.83430 | 8948 ft | 190 kts | 347° |
| 2026-04-27 00:13 | 17.75982 | -65.83717 | 8805 ft | 190 kts | 347° |
| 2026-04-27 00:14 | 17.77294 | -65.84006 | 8662 ft | 190 kts | 347° |
| 2026-04-27 00:14 | 17.78577 | -65.84288 | 8518 ft | 190 kts | 347° |
| 2026-04-27 00:14 | 17.79885 | -65.84578 | 8373 ft | 189 kts | 348° |
| 2026-04-27 00:14 | 17.81177 | -65.84863 | 8229 ft | 189 kts | 348° |
| 2026-04-27 00:15 | 17.82456 | -65.85146 | 8089 ft | 189 kts | 347° |
| 2026-04-27 00:15 | 17.83755 | -65.85431 | 7949 ft | 189 kts | 347° |
| 2026-04-27 00:15 | 17.85052 | -65.85716 | 7807 ft | 189 kts | 347° |
| 2026-04-27 00:15 | 17.86345 | -65.86002 | 7664 ft | 189 kts | 347° |
| 2026-04-27 00:16 | 17.87637 | -65.86289 | 7523 ft | 189 kts | 347° |
| 2026-04-27 00:16 | 17.88927 | -65.86576 | 7384 ft | 189 kts | 347° |
| 2026-04-27 00:16 | 17.90230 | -65.86865 | 7242 ft | 190 kts | 347° |
| 2026-04-27 00:16 | 17.91516 | -65.87149 | 7104 ft | 190 kts | 348° |
| 2026-04-27 00:17 | 17.92814 | -65.87437 | 6960 ft | 188 kts | 348° |
| 2026-04-27 00:17 | 17.94099 | -65.87721 | 6816 ft | 187 kts | 348° |
| 2026-04-27 00:17 | 17.95368 | -65.88004 | 6673 ft | 187 kts | 348° |
| 2026-04-27 00:17 | 17.96648 | -65.88287 | 6533 ft | 186 kts | 348° |
| 2026-04-27 00:18 | 17.97923 | -65.88572 | 6392 ft | 185 kts | 348° |
| 2026-04-27 00:18 | 17.99186 | -65.88850 | 6250 ft | 185 kts | 348° |
| 2026-04-27 00:18 | 18.00445 | -65.89131 | 6107 ft | 185 kts | 348° |
| 2026-04-27 00:18 | 18.01701 | -65.89410 | 5968 ft | 184 kts | 348° |
| 2026-04-27 00:19 | 18.02967 | -65.89690 | 5821 ft | 185 kts | 348° |
| 2026-04-27 00:19 | 18.04239 | -65.89973 | 5675 ft | 185 kts | 348° |
| 2026-04-27 00:19 | 18.05508 | -65.90253 | 5530 ft | 185 kts | 348° |
| 2026-04-27 00:19 | 18.06759 | -65.90530 | 5387 ft | 184 kts | 348° |
| 2026-04-27 00:20 | 18.08030 | -65.90813 | 5241 ft | 183 kts | 348° |
| 2026-04-27 00:20 | 18.09284 | -65.91090 | 5099 ft | 183 kts | 348° |
| 2026-04-27 00:20 | 18.10528 | -65.91367 | 4959 ft | 184 kts | 348° |
| 2026-04-27 00:20 | 18.11791 | -65.91646 | 4813 ft | 184 kts | 348° |
| 2026-04-27 00:21 | 18.13048 | -65.91926 | 4666 ft | 184 kts | 349° |
| 2026-04-27 00:21 | 18.14305 | -65.92204 | 4518 ft | 183 kts | 349° |
| 2026-04-27 00:21 | 18.15545 | -65.92502 | 4370 ft | 182 kts | 344° |
| 2026-04-27 00:21 | 18.16743 | -65.92911 | 4227 ft | 181 kts | 343° |
| 2026-04-27 00:22 | 18.17948 | -65.93321 | 4085 ft | 180 kts | 342° |
| 2026-04-27 00:22 | 18.19152 | -65.93734 | 3940 ft | 180 kts | 342° |
| 2026-04-27 00:22 | 18.20335 | -65.94161 | 3794 ft | 180 kts | 338° |
| 2026-04-27 00:22 | 18.21484 | -65.94669 | 3647 ft | 180 kts | 338° |
| 2026-04-27 00:23 | 18.22661 | -65.95185 | 3495 ft | 180 kts | 337° |
| 2026-04-27 00:23 | 18.23815 | -65.95697 | 3333 ft | 181 kts | 337° |
| 2026-04-27 00:23 | 18.24991 | -65.96220 | 3192 ft | 182 kts | 337° |
| 2026-04-27 00:23 | 18.26152 | -65.96735 | 3045 ft | 182 kts | 337° |
| 2026-04-27 00:24 | 18.27317 | -65.97253 | 2894 ft | 182 kts | 338° |
| 2026-04-27 00:24 | 18.28492 | -65.97777 | 2753 ft | 182 kts | 337° |
| 2026-04-27 00:24 | 18.29653 | -65.98296 | 2612 ft | 181 kts | 338° |
| 2026-04-27 00:24 | 18.30806 | -65.98812 | 2465 ft | 179 kts | 337° |
| 2026-04-27 00:25 | 18.31955 | -65.99329 | 2313 ft | 177 kts | 338° |
| 2026-04-27 00:25 | 18.33091 | -65.99842 | 2168 ft | 177 kts | 337° |
| 2026-04-27 00:25 | 18.34226 | -66.00356 | 2023 ft | 176 kts | 337° |
| 2026-04-27 00:25 | 18.35322 | -66.00858 | 1878 ft | 168 kts | 338° |
| 2026-04-27 00:26 | 18.36375 | -66.01342 | 1734 ft | 161 kts | 338° |
| 2026-04-27 00:26 | 18.37387 | -66.01810 | 1588 ft | 153 kts | 338° |
| 2026-04-27 00:26 | 18.38356 | -66.02258 | 1438 ft | 148 kts | 337° |
| 2026-04-27 00:26 | 18.39288 | -66.02678 | 1292 ft | 144 kts | 337° |
| 2026-04-27 00:27 | 18.40214 | -66.03087 | 1146 ft | 142 kts | 337° |
| 2026-04-27 00:27 | 18.41114 | -66.03455 | 963 ft | 137 kts | 345° |
| 2026-04-27 00:27 | 18.42005 | -66.03444 | 801 ft | 126 kts | 15° |
| 2026-04-27 00:27 | 18.42786 | -66.03073 | 608 ft | 119 kts | 38° |
| 2026-04-27 00:28 | 18.43261 | -66.02447 | 427 ft | 106 kts | 69° |
| 2026-04-27 00:28 | 18.43369 | -66.01724 | 211 ft | 98 kts | 95° |
| 2026-04-27 00:28 | 18.43356 | -66.01023 | 41 ft | 90 kts | 92° |
| 2026-04-27 00:28 | 18.43355 | -66.00419 | 14 ft | 74 kts | 91° |
| 2026-04-27 00:29 | 18.43353 | -65.99957 | 14 ft | 53 kts | 91° |
| 2026-04-27 00:29 | 18.43355 | -65.99615 | 14 ft | 41 kts | 90° |
| 2026-04-27 00:29 | 18.43352 | -65.99350 | 14 ft | 32 kts | 90° |
| 2026-04-27 00:29 | 18.43352 | -65.99149 | 14 ft | 21 kts | 90° |
| 2026-04-27 00:30 | 18.43278 | -65.99073 | 14 ft | 15 kts | 176° |
| 2026-04-27 00:30 | 18.43241 | -65.98995 | 14 ft | 12 kts | 91° |
| 2026-04-27 00:30 | 18.43238 | -65.98913 | 14 ft | 10 kts | 91° |
| 2026-04-27 00:30 | 18.43240 | -65.98841 | 14 ft | 9 kts | 87° |
| 2026-04-27 00:31 | 18.43210 | -65.98805 | 14 ft | 1 kts | 209° |
| 2026-04-27 00:31 | 18.43210 | -65.98810 | 14 ft | 0 kts | 269° |